Time;durP1;ratioP1;P1;durP2;ratioP2;P2;SDS_P1;SDS_P2;PMS_P1;PMS_P2;Temp;Humidity;BMP_temperature;BMP_pressure;BME280_temperature;BME280_humidity;BME280_pressure;Samples;Min_cycle;Max_cycle;Signal;HPM_P1;HPM_P2
2021/03/28 00:00:28;;;;;;;8.95;2.85;;;10.40;46.40;;;;;;2104581;28;20063;-59
2021/03/28 00:02:04;;;;;;;8.60;2.50;;;10.40;46.10;;;;;;2105451;28;20016;-58
2021/03/28 00:03:30;;;;;;;7.07;2.70;;;10.40;46.60;;;;;;2105674;28;20437;-57
2021/03/28 00:04:59;;;;;;;8.15;3.03;;;10.40;46.60;;;;;;2106372;28;20107;-59
2021/03/28 00:06:27;;;;;;;5.68;2.88;;;10.40;46.40;;;;;;2105122;28;20085;-57
2021/03/28 00:07:57;;;;;;;5.50;2.40;;;10.40;46.50;;;;;;2106022;28;20089;-58
2021/03/28 00:09:23;;;;;;;7.97;3.15;;;10.40;46.70;;;;;;2104820;28;20032;-59
2021/03/28 00:10:51;;;;;;;6.78;2.50;;;10.50;46.50;;;;;;2105438;28;20039;-59
2021/03/28 00:12:12;;;;;;;9.18;2.90;;;10.50;46.70;;;;;;2105928;28;20027;-58
2021/03/28 00:13:46;;;;;;;6.53;2.75;;;10.50;46.50;;;;;;2104303;28;20059;-58
2021/03/28 00:15:06;;;;;;;5.60;2.70;;;10.50;46.90;;;;;;2105224;28;20471;-57
2021/03/28 00:16:32;;;;;;;7.75;2.63;;;10.50;46.60;;;;;;2104745;28;20462;-57
2021/03/28 00:18:09;;;;;;;6.32;2.70;;;10.60;46.80;;;;;;2106064;28;20351;-59
2021/03/28 00:19:34;;;;;;;7.03;2.58;;;10.60;46.90;;;;;;2096394;28;20036;-58
2021/03/28 00:21:08;;;;;;;7.03;2.83;;;10.60;46.70;;;;;;2103309;28;20419;-57
2021/03/28 00:22:34;;;;;;;10.55;2.88;;;10.60;46.90;;;;;;2105876;28;20032;-56
2021/03/28 00:24:00;;;;;;;10.38;2.92;;;10.60;46.80;;;;;;2106362;28;20340;-56
2021/03/28 00:25:57;;;;;;;7.35;3.38;;;10.60;46.80;;;;;;2105177;28;20031;-57
2021/03/28 00:27:25;;;;;;;7.53;3.28;;;10.60;47.10;;;;;;2106606;28;20036;-57
2021/03/28 00:28:51;;;;;;;5.57;2.35;;;10.60;46.70;;;;;;2096570;28;20033;-57
2021/03/28 00:30:15;;;;;;;9.05;3.13;;;10.60;46.70;;;;;;2095858;28;20082;-58
2021/03/28 00:31:53;;;;;;;9.00;2.88;;;10.60;46.80;;;;;;2103628;28;20035;-57
2021/03/28 00:33:27;;;;;;;7.85;3.20;;;10.60;46.80;;;;;;2104752;28;20425;-57
2021/03/28 00:35:04;;;;;;;5.25;2.60;;;10.60;47.10;;;;;;2104879;28;20076;-57
2021/03/28 00:36:33;;;;;;;6.78;3.63;;;10.70;47.10;;;;;;2104640;28;20081;-56
2021/03/28 00:38:27;;;;;;;3.67;2.28;;;10.70;47.20;;;;;;2105502;28;20101;-56
2021/03/28 00:40:04;;;;;;;7.45;3.10;;;10.70;47.30;;;;;;2105027;28;20093;-56
2021/03/28 00:41:41;;;;;;;6.35;2.70;;;10.70;47.10;;;;;;2104121;28;20519;-57
2021/03/28 00:43:16;;;;;;;7.75;2.88;;;10.70;47.10;;;;;;2104280;28;20024;-58
2021/03/28 00:44:48;;;;;;;5.05;2.45;;;10.70;47.00;;;;;;2095334;28;20025;-58
2021/03/28 00:46:20;;;;;;;6.45;3.03;;;10.70;47.20;;;;;;2096237;28;20123;-57
2021/03/28 00:47:47;;;;;;;6.07;2.42;;;10.70;47.00;;;;;;2096407;28;20037;-57
2021/03/28 00:49:25;;;;;;;4.88;2.83;;;10.70;47.10;;;;;;2103980;28;20411;-57
2021/03/28 00:50:51;;;;;;;7.60;3.05;;;10.70;47.40;;;;;;2103927;28;20063;-58
2021/03/28 00:52:15;;;;;;;8.40;3.22;;;10.70;47.20;;;;;;2104293;28;20028;-58
2021/03/28 00:53:50;;;;;;;5.85;2.80;;;10.70;47.20;;;;;;2105499;28;20043;-60
2021/03/28 00:55:19;;;;;;;9.85;3.28;;;10.80;47.40;;;;;;2105548;28;20035;-65
2021/03/28 00:56:42;;;;;;;6.72;3.20;;;10.80;47.50;;;;;;2103428;28;20035;-59
2021/03/28 00:58:07;;;;;;;7.75;3.42;;;10.80;47.60;;;;;;2104499;28;20016;-58
2021/03/28 01:00:12;;;;;;;6.80;3.00;;;10.80;47.60;;;;;;2104434;28;20034;-58
2021/03/28 01:02:04;;;;;;;6.38;3.05;;;10.80;47.80;;;;;;2072365;28;20053;-58
2021/03/28 01:03:57;;;;;;;8.38;3.25;;;10.80;47.70;;;;;;2105165;28;20020;-58
2021/03/28 01:05:32;;;;;;;8.73;3.22;;;10.80;47.50;;;;;;2105133;28;20035;-56
2021/03/28 01:07:02;;;;;;;5.53;2.88;;;10.80;47.50;;;;;;2105078;28;20016;-57
2021/03/28 01:08:52;;;;;;;6.65;3.15;;;10.80;47.60;;;;;;2103812;28;20228;-61
2021/03/28 01:10:41;;;;;;;6.57;2.70;;;10.80;47.60;;;;;;2104818;28;20113;-58
2021/03/28 01:12:22;;;;;;;6.38;2.92;;;10.80;47.60;;;;;;2103344;28;20050;-58
2021/03/28 01:14:05;;;;;;;8.90;2.65;;;10.80;47.20;;;;;;2070013;28;20045;-58
2021/03/28 01:16:16;;;;;;;7.57;3.17;;;10.80;47.60;;;;;;2112440;27;20031;-55
2021/03/28 01:17:49;;;;;;;5.68;2.83;;;10.80;47.70;;;;;;2111278;28;20035;-57
2021/03/28 01:19:28;;;;;;;4.60;2.53;;;10.80;47.60;;;;;;2104774;28;20115;-58
2021/03/28 01:21:19;;;;;;;5.72;2.80;;;10.80;47.50;;;;;;2113787;28;20032;-58
2021/03/28 01:22:58;;;;;;;6.28;2.72;;;10.80;47.70;;;;;;2111465;28;20067;-58
2021/03/28 01:24:37;;;;;;;4.65;2.95;;;10.80;47.60;;;;;;2113882;28;20404;-58
2021/03/28 01:26:08;;;;;;;6.72;2.67;;;10.80;47.70;;;;;;2110626;28;20491;-57
2021/03/28 01:27:34;;;;;;;8.20;2.88;;;10.80;47.70;;;;;;2113100;28;20080;-59
2021/03/28 01:28:58;;;;;;;6.32;2.85;;;10.80;47.60;;;;;;2113969;28;20027;-57
2021/03/28 01:30:38;;;;;;;7.05;3.15;;;10.80;47.70;;;;;;2105346;28;20040;-60
2021/03/28 01:32:05;;;;;;;8.20;2.65;;;10.80;47.80;;;;;;2111280;28;20034;-58
2021/03/28 01:33:31;;;;;;;6.63;2.67;;;10.80;47.70;;;;;;2112731;28;20043;-57
2021/03/28 01:35:13;;;;;;;11.30;3.10;;;10.80;47.60;;;;;;2113568;28;20055;-58
2021/03/28 01:36:51;;;;;;;5.30;2.67;;;10.80;48.00;;;;;;2113189;28;20034;-58
2021/03/28 01:38:37;;;;;;;5.32;3.17;;;10.80;48.10;;;;;;2113272;28;20030;-60
2021/03/28 01:40:16;;;;;;;6.60;2.90;;;10.90;48.10;;;;;;2112227;28;20458;-58
2021/03/28 01:41:47;;;;;;;7.47;3.10;;;10.90;48.10;;;;;;2110613;28;20381;-58
2021/03/28 01:43:36;;;;;;;7.65;2.55;;;10.90;48.10;;;;;;2113355;28;20024;-59
2021/03/28 01:45:12;;;;;;;6.38;3.20;;;10.80;48.30;;;;;;2113841;28;20161;-58
2021/03/28 01:47:06;;;;;;;9.23;2.85;;;10.80;48.10;;;;;;2113200;28;20047;-55
2021/03/28 01:49:00;;;;;;;8.18;3.25;;;10.80;48.50;;;;;;2112209;28;20039;-58
2021/03/28 01:50:29;;;;;;;4.22;2.35;;;10.90;48.20;;;;;;2112210;28;20027;-58
2021/03/28 01:51:57;;;;;;;6.80;2.65;;;10.80;48.00;;;;;;2113734;28;20115;-57
2021/03/28 01:53:47;;;;;;;7.97;3.17;;;10.90;48.20;;;;;;2104983;28;20051;-58
2021/03/28 01:55:26;;;;;;;4.05;2.35;;;10.80;48.40;;;;;;2113711;28;20486;-58
2021/03/28 01:57:04;;;;;;;6.18;2.85;;;10.80;47.90;;;;;;2102328;28;20051;-57
2021/03/28 01:58:35;;;;;;;8.57;3.35;;;10.80;48.20;;;;;;2111523;28;20015;-58
2021/03/28 02:00:23;;;;;;;6.68;2.80;;;10.80;48.30;;;;;;2111059;28;20016;-58
2021/03/28 02:02:05;;;;;;;5.07;2.95;;;10.70;48.50;;;;;;2112901;28;20027;-58
2021/03/28 02:03:35;;;;;;;6.20;2.60;;;10.70;48.40;;;;;;2111714;28;20028;-57
2021/03/28 02:05:19;;;;;;;5.60;2.83;;;10.70;48.20;;;;;;2112841;28;20032;-57
2021/03/28 02:06:40;;;;;;;5.03;2.30;;;10.70;48.70;;;;;;2109035;28;20055;-57
2021/03/28 02:08:53;;;;;;;8.98;2.80;;;10.70;48.20;;;;;;2112135;28;20019;-58
2021/03/28 02:10:21;;;;;;;6.13;2.85;;;10.70;48.90;;;;;;2086123;28;20021;-58
2021/03/28 02:12:00;;;;;;;4.75;2.28;;;10.70;48.40;;;;;;2112160;28;20035;-56
2021/03/28 02:13:39;;;;;;;5.15;2.50;;;10.60;48.50;;;;;;2113072;28;20386;-57
2021/03/28 02:15:18;;;;;;;5.22;2.83;;;10.60;48.80;;;;;;2111315;28;20051;-58
2021/03/28 02:16:58;;;;;;;3.70;2.40;;;10.60;48.70;;;;;;2111711;28;20034;-58
2021/03/28 02:18:47;;;;;;;5.32;2.72;;;10.60;48.70;;;;;;2112652;28;20084;-58
2021/03/28 02:20:22;;;;;;;5.25;2.30;;;10.60;49.00;;;;;;2113562;28;20032;-57
2021/03/28 02:21:45;;;;;;;4.10;2.70;;;10.60;48.70;;;;;;2114132;28;20666;-57
2021/03/28 02:23:23;;;;;;;4.93;2.85;;;10.60;48.60;;;;;;2112295;28;20039;-59
2021/03/28 02:24:48;;;;;;;4.50;2.60;;;10.60;49.20;;;;;;2111804;28;20081;-57
2021/03/28 02:26:29;;;;;;;4.50;2.95;;;10.50;48.90;;;;;;2113088;28;20032;-57
2021/03/28 02:28:10;;;;;;;7.28;2.58;;;10.50;49.40;;;;;;2105113;28;20454;-57
2021/03/28 02:29:53;;;;;;;4.60;2.28;;;10.50;49.40;;;;;;2113742;28;20032;-57
2021/03/28 02:31:51;;;;;;;4.57;2.40;;;10.50;49.40;;;;;;2112456;28;20059;-56
2021/03/28 02:33:28;;;;;;;8.35;2.80;;;10.50;49.40;;;;;;2112168;28;20035;-57
2021/03/28 02:34:58;;;;;;;5.82;2.72;;;10.50;49.30;;;;;;2112818;28;20043;-57
2021/03/28 02:36:27;;;;;;;4.65;2.47;;;10.40;49.10;;;;;;2110685;28;20031;-57
2021/03/28 02:38:11;;;;;;;4.53;2.38;;;10.40;48.90;;;;;;2103947;28;20458;-56
2021/03/28 02:39:32;;;;;;;7.18;2.70;;;10.40;49.00;;;;;;2113620;28;20039;-57
2021/03/28 02:41:08;;;;;;;7.35;2.58;;;10.40;49.10;;;;;;2112260;28;20127;-57
2021/03/28 02:43:00;;;;;;;6.55;2.50;;;10.40;49.60;;;;;;2112504;28;20061;-58
2021/03/28 02:44:42;;;;;;;5.80;2.15;;;10.40;49.70;;;;;;2112433;28;20023;-58
2021/03/28 02:46:26;;;;;;;3.92;2.10;;;10.40;49.30;;;;;;2111870;28;20035;-58
2021/03/28 02:47:53;;;;;;;3.10;2.20;;;10.40;49.70;;;;;;2075161;28;20148;-58
2021/03/28 02:49:58;;;;;;;4.88;2.30;;;10.40;49.20;;;;;;2113050;28;20429;-57
2021/03/28 02:51:33;;;;;;;10.70;3.03;;;10.30;49.80;;;;;;2112002;28;20055;-58
2021/03/28 02:53:03;;;;;;;4.50;2.45;;;10.30;49.70;;;;;;2102688;28;20016;-58
2021/03/28 02:54:44;;;;;;;6.65;2.58;;;10.30;49.80;;;;;;2111599;28;20032;-58
2021/03/28 02:56:39;;;;;;;4.90;2.30;;;10.30;49.80;;;;;;2103042;28;20043;-57
2021/03/28 02:58:09;;;;;;;6.05;2.25;;;10.30;49.90;;;;;;2110944;28;20478;-57
2021/03/28 02:59:54;;;;;;;5.40;2.40;;;10.30;49.80;;;;;;2112286;28;20047;-55
2021/03/28 03:01:43;;;;;;;5.65;2.35;;;10.30;49.70;;;;;;2112798;28;20035;-56
2021/03/28 03:03:07;;;;;;;4.25;2.25;;;10.20;50.00;;;;;;2112371;28;20454;-59
2021/03/28 03:04:49;;;;;;;6.55;2.63;;;10.20;49.50;;;;;;2113033;28;20030;-58
2021/03/28 03:06:31;;;;;;;5.65;2.30;;;10.20;50.10;;;;;;2113061;28;20027;-57
2021/03/28 03:08:05;;;;;;;5.75;2.90;;;10.20;50.10;;;;;;2113621;28;20034;-59
2021/03/28 03:09:35;;;;;;;5.10;2.75;;;10.20;49.80;;;;;;2112703;28;20027;-57
2021/03/28 03:11:17;;;;;;;7.90;2.83;;;10.20;50.00;;;;;;2104462;28;20032;-57
2021/03/28 03:13:08;;;;;;;6.72;2.10;;;10.20;50.10;;;;;;2110025;28;20063;-59
2021/03/28 03:14:51;;;;;;;4.70;2.15;;;10.20;50.30;;;;;;2107555;28;20086;-59
2021/03/28 03:16:37;;;;;;;3.75;2.25;;;10.20;50.20;;;;;;2113002;28;20461;-59
2021/03/28 03:18:07;;;;;;;5.18;2.17;;;10.20;50.30;;;;;;2112254;28;20087;-58
2021/03/28 03:20:02;;;;;;;4.25;1.98;;;10.20;50.10;;;;;;2106534;28;20050;-58
2021/03/28 03:22:00;;;;;;;3.33;1.92;;;10.20;50.30;;;;;;2111986;28;20035;-58
2021/03/28 03:23:43;;;;;;;5.53;2.50;;;10.20;50.50;;;;;;2114012;28;20067;-58
2021/03/28 03:25:34;;;;;;;4.68;2.15;;;10.20;50.00;;;;;;2113567;28;20016;-58
2021/03/28 03:27:17;;;;;;;5.22;2.42;;;10.20;50.40;;;;;;2111716;28;20776;-58
2021/03/28 03:28:44;;;;;;;5.28;2.17;;;10.20;50.30;;;;;;2112511;28;20363;-58
2021/03/28 03:30:25;;;;;;;4.75;2.17;;;10.20;50.20;;;;;;2112957;28;20026;-58
2021/03/28 03:32:03;;;;;;;3.95;1.98;;;10.20;50.50;;;;;;2113895;28;20043;-57
2021/03/28 03:34:01;;;;;;;5.25;2.38;;;10.20;50.30;;;;;;2116486;27;20026;-59
2021/03/28 03:35:29;;;;;;;9.52;2.92;;;10.20;50.50;;;;;;2116261;27;20465;-57
2021/03/28 03:36:56;;;;;;;3.25;2.00;;;10.20;50.30;;;;;;2119719;27;20062;-56
2021/03/28 03:38:42;;;;;;;5.97;2.08;;;10.20;50.30;;;;;;2116677;27;20351;-57
2021/03/28 03:40:25;;;;;;;6.28;2.20;;;10.20;50.40;;;;;;2116902;27;20019;-57
2021/03/28 03:42:37;;;;;;;3.75;2.17;;;10.20;50.30;;;;;;2116768;27;20345;-57
2021/03/28 03:44:14;;;;;;;5.88;2.15;;;10.20;50.70;;;;;;2111807;27;20027;-57
2021/03/28 03:46:01;;;;;;;4.70;2.08;;;10.20;50.40;;;;;;2107156;28;20032;-58
2021/03/28 03:47:40;;;;;;;5.65;2.05;;;10.20;50.50;;;;;;2117540;27;20032;-58
2021/03/28 03:49:30;;;;;;;5.22;1.95;;;10.20;50.40;;;;;;2107132;28;20037;-59
2021/03/28 03:51:19;;;;;;;4.47;1.92;;;10.20;50.40;;;;;;2115138;27;20035;-58
2021/03/28 03:53:11;;;;;;;4.70;2.03;;;10.20;50.50;;;;;;2114499;27;20043;-59
2021/03/28 03:55:04;;;;;;;4.63;1.88;;;10.20;50.50;;;;;;2115064;27;20081;-58
2021/03/28 03:56:49;;;;;;;6.82;2.00;;;10.20;50.40;;;;;;2115549;27;20031;-59
2021/03/28 03:58:33;;;;;;;4.55;1.92;;;10.20;50.50;;;;;;2115110;27;20027;-58
2021/03/28 04:00:09;;;;;;;6.85;2.10;;;10.20;50.60;;;;;;2113489;27;20076;-59
2021/03/28 04:02:01;;;;;;;4.40;2.10;;;10.20;50.40;;;;;;2107908;28;20016;-58
2021/03/28 04:03:31;;;;;;;5.60;2.13;;;10.30;50.40;;;;;;2110941;27;20027;-58
2021/03/28 04:05:20;;;;;;;4.15;1.80;;;10.20;50.40;;;;;;2113812;27;20027;-58
2021/03/28 04:07:10;;;;;;;4.43;1.63;;;10.20;50.50;;;;;;2107965;28;20039;-59
2021/03/28 04:08:43;;;;;;;3.17;1.92;;;10.30;50.30;;;;;;2117237;27;20031;-58
2021/03/28 04:10:20;;;;;;;3.53;1.85;;;10.20;50.30;;;;;;2116311;27;20058;-58
2021/03/28 04:12:13;;;;;;;5.32;2.25;;;10.20;50.40;;;;;;2116562;27;20100;-57
2021/03/28 04:14:16;;;;;;;5.43;1.77;;;10.20;50.60;;;;;;2112999;27;20115;-58
2021/03/28 04:16:15;;;;;;;4.68;1.88;;;10.30;50.70;;;;;;2112328;27;20043;-58
2021/03/28 04:17:57;;;;;;;4.45;2.03;;;10.20;50.60;;;;;;2115829;27;20115;-58
2021/03/28 04:19:32;;;;;;;4.60;1.70;;;10.30;50.50;;;;;;2117128;27;20028;-58
2021/03/28 04:21:32;;;;;;;4.15;1.60;;;10.30;50.70;;;;;;2115599;27;20050;-56
2021/03/28 04:23:27;;;;;;;3.97;1.77;;;10.30;50.60;;;;;;2115314;27;20031;-58
2021/03/28 04:25:21;;;;;;;4.95;1.77;;;10.30;50.70;;;;;;2116276;27;20465;-58
2021/03/28 04:27:07;;;;;;;5.65;1.95;;;10.30;50.80;;;;;;2117625;27;20042;-57
2021/03/28 04:28:39;;;;;;;4.80;1.73;;;10.30;50.90;;;;;;2114539;27;20036;-56
2021/03/28 04:30:00;;;;;;;4.18;2.08;;;10.30;50.90;;;;;;2113408;27;21631;-56
2021/03/28 04:31:42;;;;;;;4.10;2.08;;;10.30;50.70;;;;;;2107208;28;20032;-57
2021/03/28 04:33:25;;;;;;;4.03;1.90;;;10.30;51.10;;;;;;2114302;27;20043;-55
2021/03/28 04:35:15;;;;;;;3.10;1.85;;;10.30;51.00;;;;;;2115804;27;20035;-58
2021/03/28 04:37:00;;;;;;;3.85;1.83;;;10.30;51.20;;;;;;2115743;27;20455;-58
2021/03/28 04:38:43;;;;;;;3.83;1.80;;;10.30;50.90;;;;;;2116212;27;20035;-57
2021/03/28 04:40:04;;;;;;;3.80;1.88;;;10.30;51.00;;;;;;2114046;27;20042;-57
2021/03/28 04:41:30;;;;;;;3.55;1.52;;;10.30;50.70;;;;;;2113569;28;20023;-57
2021/03/28 04:43:13;;;;;;;3.80;1.60;;;10.30;51.00;;;;;;2113045;28;20067;-59
2021/03/28 04:44:47;;;;;;;2.42;1.75;;;10.30;51.40;;;;;;2113232;28;20165;-57
2021/03/28 04:46:48;;;;;;;3.40;2.00;;;10.30;51.20;;;;;;2113762;28;20112;-58
2021/03/28 04:48:18;;;;;;;7.53;1.90;;;10.30;51.40;;;;;;2113474;28;20046;-57
2021/03/28 04:49:55;;;;;;;3.95;1.73;;;10.30;51.10;;;;;;2111935;28;20055;-56
2021/03/28 04:51:55;;;;;;;4.63;1.98;;;10.30;51.20;;;;;;2113621;28;20036;-56
2021/03/28 04:53:38;;;;;;;4.63;1.75;;;10.30;51.40;;;;;;2113970;28;20132;-56
2021/03/28 04:55:36;;;;;;;3.25;1.90;;;10.30;51.50;;;;;;2112584;28;20417;-58
2021/03/28 04:57:29;;;;;;;4.53;2.00;;;10.40;51.60;;;;;;2111541;28;20031;-58
2021/03/28 04:59:09;;;;;;;3.38;1.65;;;10.40;51.40;;;;;;2112475;28;20148;-57
2021/03/28 05:01:05;;;;;;;5.85;2.42;;;10.40;51.50;;;;;;2110857;28;20050;-57
2021/03/28 05:02:47;;;;;;;4.05;1.73;;;10.40;51.50;;;;;;2095838;28;20035;-57
2021/03/28 05:04:29;;;;;;;4.00;1.85;;;10.40;51.60;;;;;;2113559;28;20036;-58
2021/03/28 05:06:15;;;;;;;3.63;1.80;;;10.40;51.80;;;;;;2102346;28;20103;-56
2021/03/28 05:07:58;;;;;;;2.97;1.67;;;10.40;51.70;;;;;;2114012;28;20031;-57
2021/03/28 05:09:47;;;;;;;4.97;1.92;;;10.40;51.90;;;;;;2112868;28;20478;-56
2021/03/28 05:11:54;;;;;;;3.65;1.80;;;10.40;52.10;;;;;;2112670;28;20524;-56
2021/03/28 05:13:40;;;;;;;3.58;2.10;;;10.40;52.10;;;;;;2112601;28;20100;-58
2021/03/28 05:15:26;;;;;;;4.13;2.15;;;10.50;51.80;;;;;;2110020;28;20040;-58
2021/03/28 05:17:02;;;;;;;3.17;1.90;;;10.50;52.10;;;;;;2093492;27;20055;-56
2021/03/28 05:18:56;;;;;;;6.40;2.47;;;10.50;52.00;;;;;;2115765;27;20102;-57
2021/03/28 05:20:37;;;;;;;4.63;1.90;;;10.50;52.00;;;;;;2113275;27;20051;-58
2021/03/28 05:22:36;;;;;;;3.47;1.63;;;10.60;51.70;;;;;;2111692;28;20026;-57
2021/03/28 05:24:08;;;;;;;3.15;1.70;;;10.60;52.10;;;;;;2105306;28;20589;-59
2021/03/28 05:26:19;;;;;;;4.38;2.05;;;10.60;51.70;;;;;;2118368;27;20078;-58
2021/03/28 05:27:43;;;;;;;3.92;1.95;;;10.60;52.10;;;;;;2113368;28;20643;-59
2021/03/28 05:29:18;;;;;;;4.10;1.83;;;10.60;51.60;;;;;;2115551;27;20030;-57
2021/03/28 05:31:00;;;;;;;4.07;1.95;;;10.60;52.00;;;;;;2109848;28;20019;-57
2021/03/28 05:32:49;;;;;;;5.72;2.22;;;10.60;51.90;;;;;;2114958;27;20036;-57
2021/03/28 05:34:29;;;;;;;6.93;1.95;;;10.60;52.10;;;;;;2117493;27;20084;-57
2021/03/28 05:36:22;;;;;;;5.78;2.50;;;10.70;52.20;;;;;;2116399;27;20034;-56
2021/03/28 05:38:14;;;;;;;5.82;2.30;;;10.70;52.20;;;;;;2113214;27;20339;-57
2021/03/28 05:40:11;;;;;;;3.03;1.75;;;10.70;52.00;;;;;;2112582;27;20118;-58
2021/03/28 05:41:57;;;;;;;3.80;1.90;;;10.70;52.10;;;;;;2117028;27;20087;-58
2021/03/28 05:43:56;;;;;;;3.10;1.90;;;10.80;52.00;;;;;;2115499;27;20019;-58
2021/03/28 05:45:45;;;;;;;3.67;2.27;;;10.70;52.10;;;;;;2101584;28;20032;-58
2021/03/28 05:47:23;;;;;;;5.30;2.30;;;10.80;52.20;;;;;;2111933;28;20286;-58
2021/03/28 05:48:50;;;;;;;4.00;2.10;;;10.80;52.10;;;;;;2112037;28;20036;-59
2021/03/28 05:50:20;;;;;;;3.63;2.13;;;10.80;51.80;;;;;;2112275;28;20054;-57
2021/03/28 05:51:52;;;;;;;3.88;2.05;;;10.80;52.10;;;;;;2112139;28;20092;-58
2021/03/28 05:53:30;;;;;;;2.95;1.88;;;10.80;52.40;;;;;;2113815;28;20076;-58
2021/03/28 05:55:18;;;;;;;5.65;2.28;;;10.80;52.50;;;;;;2113404;27;20114;-58
2021/03/28 05:57:03;;;;;;;4.18;1.77;;;10.90;52.80;;;;;;2112453;27;20074;-58
2021/03/28 05:58:40;;;;;;;3.55;1.80;;;10.90;52.50;;;;;;2118911;27;20046;-58
2021/03/28 06:00:23;;;;;;;3.92;2.03;;;10.90;52.60;;;;;;2115240;27;20640;-58
2021/03/28 06:02:19;;;;;;;4.95;2.10;;;10.90;52.40;;;;;;2113541;28;20081;-59
2021/03/28 06:04:30;;;;;;;4.40;1.92;;;10.90;52.70;;;;;;2109661;28;20625;-58
2021/03/28 06:06:21;;;;;;;3.38;2.00;;;10.90;52.70;;;;;;2112388;28;20028;-58
2021/03/28 06:08:12;;;;;;;3.08;1.90;;;11.00;52.70;;;;;;2109115;28;20097;-58
2021/03/28 06:09:55;;;;;;;5.75;2.22;;;11.00;52.60;;;;;;2107425;28;20040;-58
2021/03/28 06:12:01;;;;;;;4.05;1.90;;;11.00;52.20;;;;;;2114019;28;20177;-58
2021/03/28 06:13:59;;;;;;;4.55;2.20;;;11.10;52.80;;;;;;2101216;28;20475;-59
2021/03/28 06:15:46;;;;;;;5.95;2.13;;;11.10;52.80;;;;;;2097014;28;20071;-58
2021/03/28 06:17:35;;;;;;;3.40;2.00;;;11.10;52.90;;;;;;2097279;28;20024;-58
2021/03/28 06:19:18;;;;;;;4.22;2.28;;;11.10;52.90;;;;;;2096039;28;20043;-58
2021/03/28 06:20:58;;;;;;;5.70;2.13;;;11.20;52.90;;;;;;2097631;28;20090;-58
2021/03/28 06:22:52;;;;;;;3.63;1.70;;;11.20;52.60;;;;;;2097709;28;20036;-58
2021/03/28 06:24:43;;;;;;;4.35;2.33;;;11.20;53.10;;;;;;2096022;28;20096;-60
2021/03/28 06:26:29;;;;;;;5.07;1.83;;;11.20;53.10;;;;;;2099495;28;20590;-58
2021/03/28 06:28:26;;;;;;;2.55;1.90;;;11.30;53.00;;;;;;2098091;28;20041;-58
2021/03/28 06:30:05;;;;;;;4.93;2.13;;;11.30;53.00;;;;;;2093000;28;20032;-58
2021/03/28 06:31:45;;;;;;;5.65;2.60;;;11.30;53.10;;;;;;2093932;28;20037;-58
2021/03/28 06:33:26;;;;;;;6.45;2.08;;;11.30;53.00;;;;;;2096216;28;20372;-58
2021/03/28 06:35:26;;;;;;;2.78;1.75;;;11.30;52.80;;;;;;2095890;28;20040;-58
2021/03/28 06:37:05;;;;;;;7.03;2.00;;;11.40;53.10;;;;;;2088229;28;20108;-57
2021/03/28 06:39:01;;;;;;;4.60;2.00;;;11.40;52.90;;;;;;2095338;28;20025;-59
2021/03/28 06:40:42;;;;;;;4.78;1.80;;;11.40;52.70;;;;;;2097171;28;20103;-58
2021/03/28 06:42:36;;;;;;;3.22;1.83;;;11.40;53.00;;;;;;2095889;28;20021;-57
2021/03/28 06:44:13;;;;;;;4.05;2.05;;;11.50;53.10;;;;;;2095229;28;20392;-58
2021/03/28 06:45:43;;;;;;;6.53;2.10;;;11.50;53.20;;;;;;2096031;28;20046;-60
2021/03/28 06:47:15;;;;;;;3.67;1.90;;;11.50;53.00;;;;;;2096851;28;20024;-57
2021/03/28 06:48:55;;;;;;;3.97;2.08;;;11.60;53.40;;;;;;2096105;28;20036;-59
2021/03/28 06:50:19;;;;;;;4.70;2.53;;;11.60;53.10;;;;;;2095956;28;20036;-58
2021/03/28 06:52:08;;;;;;;3.28;1.67;;;11.60;53.00;;;;;;2096161;28;20020;-58
2021/03/28 06:54:03;;;;;;;5.68;1.75;;;11.60;53.50;;;;;;2099582;28;20482;-58
2021/03/28 06:55:43;;;;;;;3.35;1.98;;;11.70;53.50;;;;;;2094351;28;20420;-57
2021/03/28 06:57:18;;;;;;;3.42;1.88;;;11.70;53.20;;;;;;2096609;28;20162;-58
2021/03/28 06:59:12;;;;;;;4.88;2.45;;;11.70;53.20;;;;;;2097326;28;20112;-58
2021/03/28 07:01:06;;;;;;;3.90;1.75;;;11.80;53.40;;;;;;2098747;28;20024;-58
2021/03/28 07:03:17;;;;;;;3.10;1.83;;;11.80;53.30;;;;;;2100737;28;20024;-59
2021/03/28 07:04:40;;;;;;;4.00;1.80;;;11.90;53.40;;;;;;2097558;28;20037;-59
2021/03/28 07:06:13;;;;;;;4.07;2.00;;;11.90;52.90;;;;;;2096909;28;20049;-58
2021/03/28 07:07:58;;;;;;;2.83;1.33;;;12.00;53.20;;;;;;2094602;28;20044;-58
2021/03/28 07:09:34;;;;;;;4.22;1.60;;;12.00;53.30;;;;;;2098314;28;20071;-59
2021/03/28 07:11:22;;;;;;;4.82;2.00;;;12.00;52.90;;;;;;2095947;28;20028;-58
2021/03/28 07:13:08;;;;;;;5.88;2.00;;;12.10;53.20;;;;;;2095862;28;20037;-58
2021/03/28 07:15:13;;;;;;;4.82;2.05;;;12.20;53.00;;;;;;2100812;28;20077;-57
2021/03/28 07:17:06;;;;;;;4.60;1.90;;;12.20;52.90;;;;;;2116908;27;20040;-58
2021/03/28 07:19:05;;;;;;;3.53;1.98;;;12.20;52.80;;;;;;2114251;28;20028;-57
2021/03/28 07:20:26;;;;;;;4.78;2.10;;;12.30;52.90;;;;;;2109111;28;20063;-55
2021/03/28 07:21:56;;;;;;;3.75;1.67;;;12.30;52.70;;;;;;2114741;28;20634;-57
2021/03/28 07:23:59;;;;;;;3.38;1.52;;;12.40;52.80;;;;;;2115373;27;20032;-57
2021/03/28 07:25:27;;;;;;;3.28;1.60;;;12.40;53.00;;;;;;2114599;28;20476;-58
2021/03/28 07:27:21;;;;;;;6.07;2.13;;;12.40;52.70;;;;;;2111394;28;20019;-56
2021/03/28 07:29:15;;;;;;;4.47;1.90;;;12.40;52.70;;;;;;2122038;27;20035;-57
2021/03/28 07:30:54;;;;;;;4.97;1.90;;;12.50;52.70;;;;;;2114792;27;20027;-57
2021/03/28 07:32:46;;;;;;;3.40;1.75;;;12.60;52.60;;;;;;2122733;27;20031;-57
2021/03/28 07:34:28;;;;;;;5.45;1.88;;;12.60;52.70;;;;;;2114511;28;20046;-57
2021/03/28 07:35:56;;;;;;;2.92;1.55;;;12.70;52.60;;;;;;2115089;27;20107;-56
2021/03/28 07:37:41;;;;;;;5.25;1.70;;;12.70;52.50;;;;;;2113153;27;20191;-59
2021/03/28 07:39:23;;;;;;;5.20;1.88;;;12.80;52.60;;;;;;2103552;28;20031;-56
2021/03/28 07:41:15;;;;;;;5.05;2.13;;;12.80;52.50;;;;;;2113180;28;20050;-58
2021/03/28 07:42:48;;;;;;;4.68;2.13;;;12.90;52.50;;;;;;2110106;28;20023;-57
2021/03/28 07:44:28;;;;;;;4.90;1.90;;;12.90;52.30;;;;;;2114473;28;20019;-56
2021/03/28 07:46:13;;;;;;;5.85;1.90;;;12.90;52.50;;;;;;2111261;28;20027;-57
2021/03/28 07:48:02;;;;;;;4.75;1.60;;;13.00;52.40;;;;;;2110525;28;20028;-58
2021/03/28 07:49:41;;;;;;;4.78;1.52;;;13.00;52.40;;;;;;2111129;28;20042;-58
2021/03/28 07:51:22;;;;;;;7.70;2.00;;;13.10;52.30;;;;;;2113908;28;20023;-60
2021/03/28 07:53:21;;;;;;;4.05;1.85;;;13.10;52.40;;;;;;2110933;27;20071;-56
2021/03/28 07:54:52;;;;;;;7.18;2.05;;;13.10;52.30;;;;;;2109572;28;20458;-55
2021/03/28 07:56:22;;;;;;;6.75;1.98;;;13.20;52.20;;;;;;2112452;28;20046;-58
2021/03/28 07:58:15;;;;;;;4.78;2.20;;;13.20;52.10;;;;;;2111416;28;20027;-57
2021/03/28 07:59:56;;;;;;;3.10;2.10;;;13.20;52.40;;;;;;2111382;28;20070;-57
2021/03/28 08:01:17;;;;;;;3.65;1.88;;;13.30;52.00;;;;;;2087742;28;20021;-57
2021/03/28 08:03:16;;;;;;;4.45;1.63;;;13.30;51.90;;;;;;2110316;27;20028;-58
2021/03/28 08:04:51;;;;;;;5.95;2.22;;;13.30;52.00;;;;;;2116236;27;20027;-59
2021/03/28 08:06:37;;;;;;;4.15;1.75;;;13.30;51.90;;;;;;2117772;27;20122;-59
2021/03/28 08:08:30;;;;;;;3.60;2.03;;;13.40;52.00;;;;;;2111846;28;20031;-58
2021/03/28 08:10:21;;;;;;;4.60;2.10;;;13.40;51.90;;;;;;2110631;28;20091;-57
2021/03/28 08:11:55;;;;;;;3.97;2.30;;;13.40;51.80;;;;;;2111015;28;20450;-58
2021/03/28 08:13:37;;;;;;;7.22;1.92;;;13.50;52.00;;;;;;2112877;28;20024;-58
2021/03/28 08:15:19;;;;;;;8.35;2.25;;;13.50;51.80;;;;;;2110510;28;21908;-57
2021/03/28 08:17:02;;;;;;;5.78;1.88;;;13.50;51.80;;;;;;2109791;28;20576;-58
2021/03/28 08:18:54;;;;;;;8.93;2.65;;;13.60;51.80;;;;;;2112335;28;20074;-58
2021/03/28 08:20:34;;;;;;;5.22;2.17;;;13.60;51.70;;;;;;2108593;28;20343;-58
2021/03/28 08:22:17;;;;;;;3.78;1.75;;;13.70;51.70;;;;;;2109953;28;20096;-59
2021/03/28 08:24:17;;;;;;;5.03;1.80;;;13.70;51.60;;;;;;2112228;28;20054;-58
2021/03/28 08:25:49;;;;;;;8.20;2.50;;;13.70;51.50;;;;;;2109171;28;20036;-59
2021/03/28 08:27:43;;;;;;;5.55;1.98;;;13.80;51.40;;;;;;2106715;27;20032;-58
2021/03/28 08:29:13;;;;;;;8.30;1.88;;;13.90;51.30;;;;;;2109093;28;20461;-59
2021/03/28 08:30:57;;;;;;;6.82;2.35;;;13.90;51.10;;;;;;2110717;28;20146;-60
2021/03/28 08:33:15;;;;;;;5.28;1.60;;;13.90;51.00;;;;;;2111225;28;20179;-58
2021/03/28 08:35:01;;;;;;;5.85;1.90;;;14.00;50.90;;;;;;2077103;28;20037;-59
2021/03/28 08:36:50;;;;;;;6.38;1.95;;;14.10;50.70;;;;;;2077666;28;20453;-58
2021/03/28 08:38:47;;;;;;;5.05;1.92;;;14.10;50.70;;;;;;2078082;28;20041;-59
2021/03/28 08:40:17;;;;;;;3.75;2.15;;;14.20;51.10;;;;;;2099929;28;20027;-59
2021/03/28 08:42:06;;;;;;;3.60;1.90;;;14.20;50.70;;;;;;2111135;28;20040;-59
2021/03/28 08:43:59;;;;;;;4.20;1.58;;;14.30;50.70;;;;;;2112338;28;20027;-59
2021/03/28 08:45:50;;;;;;;7.72;2.60;;;14.40;50.80;;;;;;2113472;28;20085;-59
2021/03/28 08:47:42;;;;;;;4.15;1.75;;;14.50;50.60;;;;;;2112056;28;20023;-59
2021/03/28 08:49:12;;;;;;;3.67;2.33;;;14.60;50.60;;;;;;2112580;28;20020;-59